createdAt,value
2023-05-25T00:01:55.073Z,15.41
2023-05-25T00:04:27.517Z,15.38
2023-05-25T00:06:55.864Z,15.36
2023-05-25T00:09:25.046Z,15.33
2023-05-25T00:11:53.315Z,15.31
2023-05-25T00:14:21.837Z,15.29
2023-05-25T00:16:49.913Z,15.26
2023-05-25T00:19:21.023Z,15.23
2023-05-25T00:21:49.157Z,15.20
2023-05-25T00:24:17.196Z,15.16
2023-05-25T00:26:45.326Z,15.14
2023-05-25T00:29:15.577Z,15.11
2023-05-25T00:31:43.654Z,15.08
2023-05-25T00:34:11.778Z,15.06
2023-05-25T00:36:39.782Z,15.03
2023-05-25T00:39:07.860Z,15.01
2023-05-25T00:41:41.942Z,14.98
2023-05-25T00:44:10.161Z,14.96
2023-05-25T00:46:39.585Z,14.93
2023-05-25T00:49:07.735Z,14.90
2023-05-25T00:51:36.928Z,14.87
2023-05-25T00:54:04.964Z,14.83
2023-05-25T00:56:33.856Z,14.81
2023-05-25T00:59:04.976Z,14.78
2023-05-25T01:01:34.311Z,14.76
2023-05-25T01:04:02.437Z,14.72
2023-05-25T01:06:32.541Z,14.70
2023-05-25T01:09:03.926Z,14.68
2023-05-25T01:11:33.403Z,14.66
2023-05-25T01:14:01.661Z,14.63
2023-05-25T01:16:30.153Z,14.61
2023-05-25T01:18:58.307Z,14.60
2023-05-25T01:21:34.122Z,14.59
2023-05-25T01:24:13.794Z,14.59
2023-05-25T01:26:49.383Z,14.58
2023-05-25T01:29:18.670Z,14.55
2023-05-25T01:31:47.042Z,14.53
2023-05-25T01:34:15.210Z,14.50
2023-05-25T01:36:43.360Z,14.48
2023-05-25T01:39:11.752Z,14.47
2023-05-25T01:41:39.942Z,14.45
2023-05-25T01:44:08.896Z,14.42
2023-05-25T01:46:40.892Z,14.39
2023-05-25T01:49:32.862Z,14.37
2023-05-25T01:52:19.091Z,14.32
2023-05-25T01:54:55.658Z,14.29
2023-05-25T01:57:24.324Z,14.26
2023-05-25T01:59:52.357Z,14.23
2023-05-25T02:02:20.465Z,14.19
2023-05-25T02:04:48.688Z,14.15
2023-05-25T02:07:17.158Z,14.12
2023-05-25T02:09:45.754Z,14.08
2023-05-25T02:12:13.773Z,14.06
2023-05-25T02:14:41.825Z,14.03
2023-05-25T02:17:09.923Z,14.01
2023-05-25T02:19:37.847Z,14.00
2023-05-25T02:22:05.994Z,13.98
2023-05-25T02:24:35.276Z,13.96
2023-05-25T02:27:03.812Z,13.94
2023-05-25T02:29:31.925Z,13.93
2023-05-25T02:31:59.958Z,13.92
2023-05-25T02:34:29.557Z,13.92
2023-05-25T02:36:58.149Z,13.90
2023-05-25T02:39:28.258Z,13.89
2023-05-25T02:41:56.634Z,13.90
2023-05-25T02:44:24.755Z,13.91
2023-05-25T02:46:52.854Z,13.93
2023-05-25T02:49:21.076Z,13.94
2023-05-25T02:51:49.304Z,13.96
2023-05-25T02:54:17.630Z,13.97
2023-05-25T02:56:47.088Z,13.98
2023-05-25T02:59:16.485Z,13.99
2023-05-25T03:01:44.559Z,14.02
2023-05-25T03:04:12.527Z,14.07
2023-05-25T03:06:41.259Z,14.12
2023-05-25T03:09:12.768Z,14.19
2023-05-25T03:11:41.292Z,14.25
2023-05-25T03:14:11.884Z,14.35
2023-05-25T03:16:40.314Z,14.49
2023-05-25T03:19:08.955Z,14.74
2023-05-25T03:21:38.537Z,15.08
2023-05-25T03:24:07.511Z,15.45
2023-05-25T03:26:35.559Z,15.82
2023-05-25T03:29:03.888Z,16.21
2023-05-25T03:31:33.624Z,16.61
2023-05-25T03:34:02.588Z,17.05
2023-05-25T03:36:34.431Z,17.44
2023-05-25T03:39:02.681Z,17.80
2023-05-25T03:41:30.826Z,18.24
2023-05-25T03:43:58.924Z,18.71
2023-05-25T03:46:26.994Z,19.23
2023-05-25T03:48:57.942Z,19.79
2023-05-25T03:51:25.905Z,20.23
2023-05-25T03:53:53.952Z,20.64
2023-05-25T03:56:22.011Z,21.05
2023-05-25T03:58:50.070Z,21.43
2023-05-25T04:01:20.562Z,21.84
2023-05-25T04:03:48.617Z,22.14
2023-05-25T04:06:19.601Z,22.43
2023-05-25T04:08:49.080Z,22.69
2023-05-25T04:11:16.926Z,22.93
2023-05-25T04:13:44.889Z,23.24
2023-05-25T04:16:14.169Z,23.59
2023-05-25T04:18:42.874Z,23.92
2023-05-25T04:21:11.022Z,24.14
2023-05-25T04:23:38.987Z,24.40
2023-05-25T04:26:10.581Z,24.70
2023-05-25T04:28:43.632Z,25.02
2023-05-25T04:31:22.085Z,25.24
2023-05-25T04:34:10.121Z,25.62
2023-05-25T04:36:43.969Z,26.04
2023-05-25T04:39:13.964Z,26.30
2023-05-25T04:41:47.069Z,26.44
2023-05-25T04:44:15.346Z,26.49
2023-05-25T04:46:47.384Z,26.70
2023-05-25T04:49:20.186Z,26.80
2023-05-25T04:51:48.217Z,27.02
2023-05-25T04:54:16.282Z,27.32
2023-05-25T04:56:44.619Z,27.56
2023-05-25T04:59:12.724Z,27.64
2023-05-25T05:01:44.949Z,27.84
2023-05-25T05:04:17.090Z,27.88
2023-05-25T05:06:46.667Z,27.71
2023-05-25T05:09:19.705Z,27.74
2023-05-25T05:11:48.574Z,27.97
2023-05-25T05:14:17.376Z,28.11
2023-05-25T05:16:48.488Z,28.28
2023-05-25T05:19:16.805Z,28.51
2023-05-25T05:21:45.214Z,28.71
2023-05-25T05:24:13.547Z,28.82
2023-05-25T05:26:56.380Z,28.83
2023-05-25T05:29:30.004Z,28.74
2023-05-25T05:31:58.956Z,28.76
2023-05-25T05:34:27.356Z,28.93
2023-05-25T05:36:58.450Z,29.20
2023-05-25T05:39:28.704Z,29.33
2023-05-25T05:41:57.312Z,29.24
2023-05-25T05:44:28.753Z,29.18
2023-05-25T05:47:01.307Z,29.09
2023-05-25T05:49:31.221Z,29.03
2023-05-25T05:52:00.875Z,29.09
2023-05-25T05:54:29.049Z,29.10
2023-05-25T05:57:00.304Z,29.04
2023-05-25T05:59:29.140Z,28.95
2023-05-25T06:01:57.361Z,28.98
2023-05-25T06:04:29.266Z,29.12
2023-05-25T06:06:58.842Z,29.23
2023-05-25T06:09:26.918Z,29.29
2023-05-25T06:11:58.552Z,29.29
2023-05-25T06:14:28.480Z,29.30
2023-05-25T06:17:00.725Z,29.29
2023-05-25T06:19:29.006Z,29.21
2023-05-25T06:21:57.310Z,29.13
2023-05-25T06:24:25.455Z,29.13
2023-05-25T06:26:53.553Z,29.18
2023-05-25T06:29:21.727Z,29.21
2023-05-25T06:31:49.899Z,29.15
2023-05-25T06:34:18.923Z,29.10
2023-05-25T06:36:48.218Z,29.09
2023-05-25T06:39:16.793Z,29.08
2023-05-25T06:41:45.333Z,29.02
2023-05-25T06:44:15.344Z,28.89
2023-05-25T06:46:48.049Z,28.94
2023-05-25T06:49:16.483Z,29.04
2023-05-25T06:51:44.580Z,29.12
2023-05-25T06:54:15.330Z,29.15
2023-05-25T06:56:43.844Z,29.16
2023-05-25T06:59:11.979Z,29.17
2023-05-25T07:01:40.093Z,29.25
2023-05-25T07:04:08.201Z,29.33
2023-05-25T07:06:37.008Z,29.50
2023-05-25T07:09:05.281Z,29.66
2023-05-25T07:11:33.816Z,29.77
2023-05-25T07:14:01.920Z,29.88
2023-05-25T07:16:30.183Z,30.02
2023-05-25T07:19:00.071Z,30.04
2023-05-25T07:21:32.478Z,30.01
2023-05-25T07:24:01.191Z,29.91
2023-05-25T07:26:29.315Z,29.85
2023-05-25T07:28:57.286Z,29.86
2023-05-25T07:31:25.478Z,29.80
2023-05-25T07:33:55.774Z,29.71
2023-05-25T07:36:25.242Z,29.69
2023-05-25T07:38:53.496Z,29.66
2023-05-25T07:41:21.864Z,29.59
2023-05-25T07:43:50.027Z,29.54
2023-05-25T07:46:21.499Z,29.51
2023-05-25T07:48:49.630Z,29.52
2023-05-25T07:51:17.695Z,29.55
2023-05-25T07:53:46.013Z,29.51
2023-05-25T07:56:14.125Z,29.52
2023-05-25T07:58:42.229Z,29.49
2023-05-25T08:01:10.301Z,29.43
2023-05-25T08:03:48.923Z,29.43
2023-05-25T08:06:18.210Z,29.51
2023-05-25T08:08:46.285Z,29.53
2023-05-25T08:11:15.494Z,29.44
2023-05-25T08:13:44.403Z,29.42
2023-05-25T08:16:12.432Z,29.46
2023-05-25T08:18:42.269Z,29.54
2023-05-25T08:21:10.335Z,29.52
2023-05-25T08:23:42.758Z,29.39
2023-05-25T08:26:31.119Z,29.10
2023-05-25T08:29:01.227Z,28.73
2023-05-25T08:31:29.356Z,28.42
2023-05-25T08:33:57.386Z,28.07
2023-05-25T08:36:26.553Z,27.77
2023-05-25T08:38:54.813Z,27.49
2023-05-25T08:41:23.200Z,27.17
2023-05-25T08:43:51.489Z,26.45
2023-05-25T08:46:37.720Z,23.79
2023-05-25T08:49:10.407Z,20.75
2023-05-25T08:51:58.884Z,18.80
2023-05-25T08:54:32.937Z,17.67
2023-05-25T08:57:06.446Z,17.22
2023-05-25T08:59:53.010Z,17.10
2023-05-25T09:02:32.735Z,17.03
2023-05-25T09:05:02.114Z,17.02
2023-05-25T09:07:30.900Z,17.06
2023-05-25T09:10:01.394Z,17.15
2023-05-25T09:12:31.274Z,17.27
2023-05-25T09:14:59.627Z,17.42
2023-05-25T09:17:27.748Z,17.56
2023-05-25T09:19:55.860Z,17.67
2023-05-25T09:22:23.946Z,17.74
2023-05-25T09:24:51.986Z,17.77
2023-05-25T09:27:21.832Z,17.80
2023-05-25T09:29:50.835Z,17.83
2023-05-25T09:32:19.588Z,17.86
2023-05-25T09:34:48.073Z,17.89
2023-05-25T09:37:17.661Z,17.93
2023-05-25T09:39:46.070Z,17.98
2023-05-25T09:42:14.127Z,18.04
2023-05-25T09:44:43.204Z,18.12
2023-05-25T09:47:11.312Z,18.21
2023-05-25T09:49:39.253Z,18.32
2023-05-25T09:52:07.220Z,18.44
2023-05-25T09:54:35.213Z,18.56
2023-05-25T09:57:04.519Z,18.68
2023-05-25T09:59:32.913Z,18.77
2023-05-25T10:02:01.099Z,18.86
2023-05-25T10:04:29.288Z,18.93
2023-05-25T10:06:57.383Z,18.97
2023-05-25T10:09:26.530Z,18.97
2023-05-25T10:11:55.201Z,18.99
2023-05-25T10:14:29.370Z,19.00
2023-05-25T10:16:59.861Z,19.02
2023-05-25T10:19:41.783Z,19.03
2023-05-25T10:22:34.138Z,19.03
2023-05-25T10:25:08.204Z,19.01
2023-05-25T10:27:41.480Z,18.98
2023-05-25T10:30:10.011Z,18.94
2023-05-25T10:32:38.317Z,18.93
2023-05-25T10:35:07.700Z,18.92
2023-05-25T10:37:36.010Z,18.91
2023-05-25T10:40:05.344Z,18.92
2023-05-25T10:42:34.945Z,18.96
2023-05-25T10:45:04.705Z,18.96
2023-05-25T10:47:32.773Z,18.97
2023-05-25T10:50:03.367Z,18.99
2023-05-25T10:52:32.053Z,19.02
2023-05-25T10:55:05.610Z,19.08
2023-05-25T10:57:33.748Z,19.16
2023-05-25T11:00:06.773Z,19.23
2023-05-25T11:03:02.175Z,19.31
2023-05-25T11:05:34.450Z,19.38
2023-05-25T11:08:06.177Z,19.45
2023-05-25T11:10:50.825Z,19.52
2023-05-25T11:13:40.691Z,19.56
2023-05-25T11:16:28.002Z,19.59
2023-05-25T11:19:00.409Z,19.64
2023-05-25T11:21:28.388Z,19.65
2023-05-25T11:23:57.827Z,19.68
2023-05-25T11:26:30.463Z,19.72
2023-05-25T11:29:02.494Z,19.76
2023-05-25T11:31:38.890Z,19.80
2023-05-25T11:34:09.941Z,19.85
2023-05-25T11:36:37.978Z,19.89
2023-05-25T11:39:11.721Z,19.93
2023-05-25T11:41:58.639Z,19.99
2023-05-25T11:44:31.520Z,20.05
2023-05-25T11:47:09.130Z,20.11
2023-05-25T11:49:42.315Z,20.18
2023-05-25T11:52:10.838Z,20.28
2023-05-25T11:54:41.508Z,20.36
2023-05-25T11:57:16.980Z,20.44
2023-05-25T11:59:52.677Z,20.53
2023-05-25T12:02:21.322Z,20.63
2023-05-25T12:04:56.158Z,20.71
2023-05-25T12:07:25.287Z,20.83
2023-05-25T12:10:04.638Z,20.94
2023-05-25T12:12:48.377Z,21.04
2023-05-25T12:15:20.533Z,21.16
2023-05-25T12:17:49.165Z,21.22
2023-05-25T12:20:17.709Z,21.28
2023-05-25T12:22:46.137Z,21.32
2023-05-25T12:25:14.728Z,21.36
2023-05-25T12:27:43.220Z,21.38
2023-05-25T12:30:12.199Z,21.39
2023-05-25T12:33:04.217Z,21.43
2023-05-25T12:35:54.091Z,21.46
2023-05-25T12:38:22.400Z,21.45
2023-05-25T12:41:08.037Z,21.44
2023-05-25T12:43:40.445Z,21.47
2023-05-25T12:46:08.478Z,21.48
2023-05-25T12:48:36.754Z,21.48
2023-05-25T12:51:05.074Z,21.50
2023-05-25T12:53:52.542Z,21.56
2023-05-25T12:56:20.584Z,21.60
2023-05-25T12:58:48.530Z,21.63
2023-05-25T13:01:16.528Z,21.68
2023-05-25T13:03:45.014Z,21.74
2023-05-25T13:06:13.124Z,21.80
2023-05-25T13:08:41.103Z,21.90
2023-05-25T13:11:09.091Z,21.97
2023-05-25T13:13:37.753Z,22.01
2023-05-25T13:16:06.026Z,22.07
2023-05-25T13:18:34.081Z,22.16
2023-05-25T13:21:02.631Z,22.26
2023-05-25T13:23:30.827Z,22.33
2023-05-25T13:25:58.837Z,22.37
2023-05-25T13:28:26.784Z,22.43
2023-05-25T13:30:54.796Z,22.46
2023-05-25T13:33:22.809Z,22.45
2023-05-25T13:36:00.147Z,22.42
2023-05-25T13:38:29.920Z,22.40
2023-05-25T13:40:57.891Z,22.39
2023-05-25T13:43:26.412Z,22.38
2023-05-25T13:45:54.490Z,22.38
2023-05-25T13:48:22.700Z,22.41
2023-05-25T13:50:50.802Z,22.42
2023-05-25T13:53:18.780Z,22.41
2023-05-25T13:55:46.928Z,22.41
2023-05-25T13:58:14.969Z,22.39
2023-05-25T14:00:43.041Z,22.32
2023-05-25T14:03:11.467Z,22.22
2023-05-25T14:05:39.646Z,22.10
2023-05-25T14:08:08.255Z,22.00
2023-05-25T14:10:36.499Z,21.91
2023-05-25T14:13:04.595Z,21.85
2023-05-25T14:15:32.740Z,21.73
2023-05-25T14:18:00.833Z,21.61
2023-05-25T14:20:29.239Z,21.49
2023-05-25T14:22:57.458Z,21.41
2023-05-25T14:25:25.416Z,21.33
2023-05-25T14:27:53.372Z,21.27
2023-05-25T14:30:21.399Z,21.18
2023-05-25T14:32:49.494Z,21.10
2023-05-25T14:35:17.957Z,21.04
2023-05-25T14:37:46.038Z,20.98
2023-05-25T14:40:14.115Z,20.92
2023-05-25T14:42:42.175Z,20.86
2023-05-25T14:45:11.377Z,20.82
2023-05-25T14:47:41.242Z,20.78
2023-05-25T14:50:09.418Z,20.74
2023-05-25T14:52:37.788Z,20.70
2023-05-25T14:55:06.336Z,20.68
2023-05-25T14:57:34.271Z,20.68
2023-05-25T15:00:02.386Z,20.68
2023-05-25T15:02:30.751Z,20.71
2023-05-25T15:04:59.230Z,20.74
2023-05-25T15:07:27.214Z,20.74
2023-05-25T15:09:55.336Z,20.75
2023-05-25T15:12:23.286Z,20.76
2023-05-25T15:14:51.300Z,20.75
2023-05-25T15:17:19.344Z,20.74
2023-05-25T15:19:47.326Z,20.70
2023-05-25T15:22:15.445Z,20.68
2023-05-25T15:24:43.525Z,20.67
2023-05-25T15:27:11.645Z,20.70
2023-05-25T15:29:39.670Z,20.72
2023-05-25T15:32:10.108Z,20.75
2023-05-25T15:34:38.214Z,20.76
2023-05-25T15:37:06.230Z,20.76
2023-05-25T15:39:34.285Z,20.76
2023-05-25T15:42:02.661Z,20.75
2023-05-25T15:44:30.749Z,20.75
2023-05-25T15:46:58.867Z,20.75
2023-05-25T15:49:26.844Z,20.75
2023-05-25T15:51:55.138Z,20.75
2023-05-25T15:54:23.098Z,20.75
2023-05-25T15:56:51.039Z,20.75
2023-05-25T15:59:19.308Z,20.75
2023-05-25T16:01:47.344Z,20.76
2023-05-25T16:04:15.825Z,20.76
2023-05-25T16:06:44.075Z,20.75
2023-05-25T16:09:12.842Z,20.75
2023-05-25T16:11:40.905Z,20.75
2023-05-25T16:14:08.915Z,20.75
2023-05-25T16:16:37.015Z,20.75
2023-05-25T16:19:05.328Z,20.76
2023-05-25T16:21:37.838Z,20.76
2023-05-25T16:24:07.140Z,20.76
2023-05-25T16:26:35.681Z,20.77
2023-05-25T16:29:03.694Z,20.76
2023-05-25T16:31:31.800Z,20.75
2023-05-25T16:34:00.024Z,20.74
2023-05-25T16:36:28.008Z,20.72
2023-05-25T16:38:56.192Z,20.71
2023-05-25T16:41:24.292Z,20.70
2023-05-25T16:43:52.280Z,20.68
2023-05-25T16:46:21.617Z,20.67
2023-05-25T16:48:49.658Z,20.66
2023-05-25T16:51:17.651Z,20.65
2023-05-25T16:53:46.137Z,20.64
2023-05-25T16:56:14.226Z,20.63
2023-05-25T16:58:42.426Z,20.60
2023-05-25T17:01:11.863Z,20.58
2023-05-25T17:03:39.935Z,20.54
2023-05-25T17:06:08.774Z,20.52
2023-05-25T17:08:36.830Z,20.48
2023-05-25T17:11:04.914Z,20.44
2023-05-25T17:13:32.992Z,20.41
2023-05-25T17:16:01.169Z,20.37
2023-05-25T17:18:29.207Z,20.32
2023-05-25T17:20:58.177Z,20.28
2023-05-25T17:23:26.242Z,20.22
2023-05-25T17:25:54.344Z,20.17
2023-05-25T17:28:22.426Z,20.13
2023-05-25T17:30:50.417Z,20.09
2023-05-25T17:33:18.519Z,20.06
2023-05-25T17:35:46.738Z,20.01
2023-05-25T17:38:15.061Z,19.95
2023-05-25T17:40:43.249Z,19.89
2023-05-25T17:43:11.415Z,19.84
2023-05-25T17:45:39.500Z,19.80
2023-05-25T17:48:07.461Z,19.76
2023-05-25T17:50:35.457Z,19.71
2023-05-25T17:53:03.479Z,19.66
2023-05-25T17:55:31.422Z,19.61
2023-05-25T17:57:59.475Z,19.55
2023-05-25T18:00:27.676Z,19.50
2023-05-25T18:02:55.699Z,19.45
2023-05-25T18:05:23.756Z,19.40
2023-05-25T18:07:51.788Z,19.34
2023-05-25T18:10:19.933Z,19.29
2023-05-25T18:12:49.651Z,19.25
2023-05-25T18:15:17.576Z,19.21
2023-05-25T18:17:45.602Z,19.15
2023-05-25T18:20:13.821Z,19.11
2023-05-25T18:22:41.801Z,19.07
2023-05-25T18:25:10.120Z,19.03
2023-05-25T18:27:38.146Z,19.00
2023-05-25T18:30:07.175Z,18.96
2023-05-25T18:32:35.283Z,18.92
2023-05-25T18:35:03.334Z,18.89
2023-05-25T18:37:34.631Z,18.85
2023-05-25T18:40:07.417Z,18.82
2023-05-25T18:42:35.481Z,18.80
2023-05-25T18:45:03.636Z,18.77
2023-05-25T18:47:31.786Z,18.75
2023-05-25T18:49:59.761Z,18.71
2023-05-25T18:52:27.793Z,18.67
2023-05-25T18:54:55.742Z,18.65
2023-05-25T18:57:23.882Z,18.61
2023-05-25T18:59:52.576Z,18.57
2023-05-25T19:02:20.754Z,18.55
2023-05-25T19:04:49.153Z,18.51
2023-05-25T19:07:17.120Z,18.48
2023-05-25T19:09:45.164Z,18.45
2023-05-25T19:12:13.349Z,18.43
2023-05-25T19:14:41.262Z,18.40
2023-05-25T19:17:09.526Z,18.38
2023-05-25T19:19:37.550Z,18.36
2023-05-25T19:22:06.764Z,18.34
2023-05-25T19:24:35.157Z,18.32
2023-05-25T19:27:03.379Z,18.29
2023-05-25T19:29:31.605Z,18.27
2023-05-25T19:31:59.647Z,18.26
2023-05-25T19:34:27.728Z,18.24
2023-05-25T19:37:07.558Z,18.21
2023-05-25T19:39:39.089Z,18.17
2023-05-25T19:42:07.190Z,18.13
2023-05-25T19:44:35.123Z,18.10
2023-05-25T19:47:03.176Z,18.07
2023-05-25T19:49:31.346Z,18.05
2023-05-25T19:51:59.460Z,18.04
2023-05-25T19:54:27.511Z,18.02
2023-05-25T19:56:55.517Z,18.01
2023-05-25T19:59:28.231Z,18.00
2023-05-25T20:01:57.164Z,18.00
2023-05-25T20:04:25.627Z,17.99
2023-05-25T20:06:54.159Z,17.97
2023-05-25T20:09:30.392Z,17.95
2023-05-25T20:11:59.040Z,17.94
2023-05-25T20:14:27.001Z,17.92
2023-05-25T20:16:56.245Z,17.89
2023-05-25T20:19:24.195Z,17.86
2023-05-25T20:21:52.399Z,17.82
2023-05-25T20:24:20.471Z,17.80
2023-05-25T20:26:48.460Z,17.78
2023-05-25T20:29:16.442Z,17.75
2023-05-25T20:31:44.491Z,17.72
2023-05-25T20:34:12.691Z,17.69
2023-05-25T20:36:40.797Z,17.66
2023-05-25T20:39:08.822Z,17.63
2023-05-25T20:41:36.985Z,17.60
2023-05-25T20:44:07.104Z,17.56
2023-05-25T20:46:35.238Z,17.53
2023-05-25T20:49:03.994Z,17.50
2023-05-25T20:51:32.992Z,17.45
2023-05-25T20:54:01.205Z,17.39
2023-05-25T20:56:29.207Z,17.35
2023-05-25T20:58:57.886Z,17.32
2023-05-25T21:01:26.229Z,17.29
2023-05-25T21:03:54.558Z,17.27
2023-05-25T21:06:23.182Z,17.25
2023-05-25T21:08:52.390Z,17.22
2023-05-25T21:11:22.251Z,17.20
2023-05-25T21:13:50.167Z,17.18
2023-05-25T21:16:18.254Z,17.16
2023-05-25T21:18:46.483Z,17.14
2023-05-25T21:21:16.308Z,17.12
2023-05-25T21:23:44.403Z,17.10
2023-05-25T21:26:12.499Z,17.09
2023-05-25T21:28:40.627Z,17.09
2023-05-25T21:31:08.805Z,17.10
2023-05-25T21:33:38.062Z,17.11
2023-05-25T21:36:06.490Z,17.12
2023-05-25T21:38:34.476Z,17.13
2023-05-25T21:41:02.561Z,17.15
2023-05-25T21:43:31.163Z,17.17
2023-05-25T21:45:59.233Z,17.20
2023-05-25T21:48:27.465Z,17.22
2023-05-25T21:50:55.456Z,17.25
2023-05-25T21:53:23.684Z,17.28
2023-05-25T21:55:53.238Z,17.30
2023-05-25T21:58:21.528Z,17.33
2023-05-25T22:00:49.560Z,17.36
2023-05-25T22:03:18.931Z,17.38
2023-05-25T22:05:47.214Z,17.40
2023-05-25T22:08:15.334Z,17.40
2023-05-25T22:10:43.556Z,17.41
2023-05-25T22:13:11.531Z,17.42
2023-05-25T22:15:39.603Z,17.42
2023-05-25T22:18:07.892Z,17.42
2023-05-25T22:20:39.165Z,17.43
2023-05-25T22:23:08.293Z,17.42
2023-05-25T22:25:36.445Z,17.41
2023-05-25T22:28:04.563Z,17.41
2023-05-25T22:30:32.602Z,17.40
2023-05-25T22:33:00.815Z,17.39
2023-05-25T22:35:29.042Z,17.38
2023-05-25T22:37:57.216Z,17.36
2023-05-25T22:40:25.437Z,17.34
2023-05-25T22:42:53.438Z,17.32
2023-05-25T22:45:21.695Z,17.31
2023-05-25T22:47:49.797Z,17.31
2023-05-25T22:50:17.928Z,17.30
2023-05-25T22:52:46.541Z,17.29
2023-05-25T22:55:14.614Z,17.29
2023-05-25T22:57:42.644Z,17.30
2023-05-25T23:00:11.401Z,17.32
2023-05-25T23:02:39.575Z,17.34
2023-05-25T23:05:09.404Z,17.35
2023-05-25T23:07:37.407Z,17.35
2023-05-25T23:10:05.959Z,17.35
2023-05-25T23:12:34.127Z,17.35
2023-05-25T23:15:03.076Z,17.34
2023-05-25T23:17:32.135Z,17.33
2023-05-25T23:20:00.182Z,17.33
2023-05-25T23:22:28.564Z,17.33
2023-05-25T23:24:56.704Z,17.32
2023-05-25T23:27:24.857Z,17.31
2023-05-25T23:29:52.914Z,17.30
2023-05-25T23:32:21.587Z,17.29
2023-05-25T23:34:49.647Z,17.25
2023-05-25T23:37:17.585Z,17.22
2023-05-25T23:39:45.829Z,17.19
2023-05-25T23:42:17.161Z,17.14
2023-05-25T23:44:45.331Z,17.10
2023-05-25T23:47:13.440Z,17.07
2023-05-25T23:49:41.385Z,17.04
2023-05-25T23:52:09.456Z,17.02
2023-05-25T23:54:37.601Z,16.99
2023-05-25T23:57:06.294Z,16.97
2023-05-25T23:59:34.329Z,16.94
